createdAt,value
2023-02-22T00:02:03.630Z,21.4
2023-02-22T00:12:06.418Z,21.3
2023-02-22T00:22:09.117Z,21.2
2023-02-22T00:32:11.858Z,21.4
2023-02-22T00:42:14.464Z,21.1
2023-02-22T00:52:17.247Z,20.8
2023-02-22T01:02:19.989Z,20.8
2023-02-22T01:12:22.598Z,21.1
2023-02-22T01:22:25.280Z,20.8
2023-02-22T01:32:28.055Z,20.6
2023-02-22T01:42:30.659Z,20.9
2023-02-22T01:52:33.381Z,20.9
2023-02-22T02:02:35.931Z,20.9
2023-02-22T02:12:38.596Z,20.8
2023-02-22T02:22:41.328Z,20.6
2023-02-22T02:32:43.677Z,20.6
2023-02-22T02:42:46.850Z,20.5
2023-02-22T02:52:49.003Z,20.6
2023-02-22T03:03:07.307Z,20.3
2023-02-22T03:13:08.838Z,20.2
2023-02-22T03:23:10.477Z,20.4
2023-02-22T03:33:11.803Z,20.2
2023-02-22T03:43:13.081Z,19.8
2023-02-22T03:53:14.621Z,20.1
2023-02-22T04:03:16.609Z,20.1
2023-02-22T04:13:19.081Z,20.1
2023-02-22T04:23:20.344Z,19.1
2023-02-22T04:33:22.505Z,20.3
2023-02-22T04:43:24.381Z,20.1
2023-02-22T04:53:25.937Z,18.9
2023-02-22T05:03:27.686Z,20.1
2023-02-22T05:13:28.853Z,20.1
2023-02-22T05:23:29.827Z,19.9
2023-02-22T05:33:29.890Z,18.8
2023-02-22T05:43:31.122Z,18.1
2023-02-22T05:53:32.773Z,19.7
2023-02-22T06:03:46.322Z,24
2023-02-22T06:14:07.139Z,24.9
2023-02-22T06:24:28.084Z,25.7
2023-02-22T06:34:48.989Z,25.8
2023-02-22T06:45:10.211Z,25.8
2023-02-22T06:55:33.682Z,26.4
2023-02-22T07:05:56.310Z,26.7
2023-02-22T07:16:15.213Z,26.4
2023-02-22T07:26:32.576Z,26.9
2023-02-22T07:36:50.989Z,27.4
2023-02-22T07:47:09.744Z,27.7
2023-02-22T07:57:26.500Z,28
2023-02-22T08:07:42.952Z,28.3
2023-02-22T08:17:58.574Z,28.8
2023-02-22T08:28:14.139Z,28.8
2023-02-22T08:38:29.602Z,29.2
2023-02-22T08:48:47.375Z,29.7
2023-02-22T08:59:08.281Z,29.6
2023-02-22T09:03:14.750Z,29.4
2023-02-22T09:13:35.064Z,29.3
2023-02-22T09:23:50.983Z,29
2023-02-22T09:34:09.336Z,29.8
2023-02-22T09:44:29.766Z,30.2
2023-02-22T09:54:50.025Z,30.6
2023-02-22T10:05:10.478Z,30.5
2023-02-22T10:15:31.502Z,30.5
2023-02-22T10:25:52.086Z,29.3
2023-02-22T10:36:07.321Z,28.7
2023-02-22T10:46:24.890Z,30.8
2023-02-22T10:56:45.943Z,30.7
2023-02-22T11:07:04.533Z,28.3
2023-02-22T11:17:22.238Z,30.2
2023-02-22T11:27:41.779Z,30
2023-02-22T11:38:01.141Z,29.7
2023-02-22T11:48:20.435Z,29.9
2023-02-22T11:58:38.652Z,29
2023-02-22T12:08:55.290Z,25.6
2023-02-22T12:19:02.750Z,26.8
2023-02-22T12:29:06.905Z,25.9
2023-02-22T12:39:12.366Z,25.1
2023-02-22T12:49:16.732Z,24.9
2023-02-22T12:59:21.180Z,25.2
2023-02-22T13:09:24.692Z,25.2
2023-02-22T13:19:28.681Z,25
2023-02-22T13:29:33.065Z,24.7
2023-02-22T13:39:37.089Z,24.8
2023-02-22T13:49:41.419Z,24.6
2023-02-22T13:59:45.644Z,24.9
2023-02-22T14:09:47.311Z,22.9
2023-02-22T14:19:50.103Z,22.6
2023-02-22T14:29:51.881Z,24.8
2023-02-22T14:39:58.605Z,24.6
2023-02-22T14:49:59.902Z,24.2
2023-02-22T15:03:07.945Z,24.6
2023-02-22T15:13:12.131Z,24.3
2023-02-22T15:23:16.363Z,22.3
2023-02-22T15:33:18.454Z,22.6
2023-02-22T15:43:21.812Z,24.6
2023-02-22T15:53:23.425Z,22.1
2023-02-22T16:03:24.727Z,22.4
2023-02-22T16:13:31.840Z,24.5
2023-02-22T16:23:30.359Z,22.3
2023-02-22T16:33:32.622Z,22.2
2023-02-22T16:43:37.004Z,23.3
2023-02-22T16:53:39.204Z,23.9
2023-02-22T17:03:40.851Z,21.9
2023-02-22T17:13:42.434Z,21.8
2023-02-22T17:23:42.726Z,21.8
2023-02-22T17:33:45.303Z,23.4
2023-02-22T17:43:45.771Z,21.7
2023-02-22T17:53:46.062Z,23.4
2023-02-22T18:03:47.577Z,23.3
2023-02-22T18:13:48.663Z,23.4
2023-02-22T18:23:48.610Z,21.4
2023-02-22T18:33:48.802Z,21.3
2023-02-22T18:43:48.563Z,21.4
2023-02-22T18:53:49.209Z,21.4
2023-02-22T19:03:50.276Z,21.6
2023-02-22T19:13:50.398Z,21.3
2023-02-22T19:23:51.066Z,21.6
2023-02-22T19:33:51.657Z,21.2
2023-02-22T19:43:52.067Z,21.2
2023-02-22T19:53:53.188Z,23
2023-02-22T20:03:54.911Z,20.9
2023-02-22T20:13:55.718Z,21.4
2023-02-22T20:23:55.808Z,21.3
2023-02-22T20:33:56.165Z,21.3
2023-02-22T20:43:56.517Z,21.1
2023-02-22T20:53:57.681Z,20.7
2023-02-22T21:03:06.960Z,21.2
2023-02-22T21:13:11.408Z,21
2023-02-22T21:23:09.446Z,21.2
2023-02-22T21:33:09.796Z,20.8
2023-02-22T21:43:10.824Z,21.1
2023-02-22T21:53:11.397Z,20.7
2023-02-22T22:03:12.346Z,20.6
2023-02-22T22:13:14.808Z,20.8
2023-02-22T22:23:15.763Z,20.6
2023-02-22T22:33:17.467Z,20.6
2023-02-22T22:43:19.118Z,20.4
2023-02-22T22:53:20.634Z,22.3
2023-02-22T23:03:21.662Z,20.3
2023-02-22T23:13:21.929Z,20.4
2023-02-22T23:23:22.194Z,20.3
2023-02-22T23:33:23.013Z,21.9
2023-02-22T23:43:23.317Z,22.1
2023-02-22T23:53:24.293Z,20.4
